createdAt,value
2019-05-22T02:03:13.550Z,11.00
2019-05-22T02:06:23.338Z,11.00
2019-05-22T02:09:20.847Z,11.00
2019-05-22T02:11:58.556Z,11.00
2019-05-22T02:14:36.133Z,11.00
2019-05-22T02:17:12.716Z,11.00
2019-05-22T02:19:48.478Z,10.90
2019-05-22T02:22:45.875Z,10.90
2019-05-22T02:25:18.422Z,10.80
2019-05-22T02:27:52.724Z,10.70
2019-05-22T02:30:28.862Z,10.70
2019-05-22T02:33:06.713Z,10.70
2019-05-22T02:35:47.007Z,10.70
2019-05-22T02:38:32.797Z,10.70
2019-05-22T02:41:15.430Z,10.70
2019-05-22T02:47:16.586Z,10.70
2019-05-22T02:52:58.898Z,10.70
2019-05-22T02:56:17.230Z,10.60
2019-05-22T02:59:33.223Z,10.60
2019-05-22T03:02:47.992Z,10.60
2019-05-22T03:17:20.917Z,10.50
2019-05-22T03:31:54.562Z,10.50
2019-05-22T03:49:30.103Z,10.40
2019-05-22T03:52:36.819Z,10.40
2019-05-22T03:58:21.686Z,10.50
2019-05-22T04:01:33.252Z,10.50
2019-05-22T04:32:17.986Z,10.40
2019-05-22T04:46:43.942Z,10.60
2019-05-22T04:49:27.991Z,10.60
2019-05-22T05:42:46.604Z,10.80
2019-05-22T05:45:58.224Z,10.80
2019-05-22T05:49:07.830Z,10.90
2019-05-22T05:52:36.650Z,10.80
2019-05-22T05:55:15.780Z,10.90
2019-05-22T06:02:20.607Z,11.00
2019-05-22T06:04:53.054Z,11.00
2019-05-22T06:08:00.098Z,11.00
2019-05-22T06:35:32.705Z,11.10
2019-05-22T06:38:33.852Z,11.10
2019-05-22T06:41:16.969Z,11.20
2019-05-22T06:44:33.849Z,11.30
2019-05-22T06:47:21.884Z,11.30
2019-05-22T06:50:07.469Z,11.40
2019-05-22T06:52:43.717Z,11.40
2019-05-22T06:55:16.883Z,11.60
2019-05-22T06:57:48.565Z,11.60
2019-05-22T07:00:26.252Z,11.70
2019-05-22T07:03:02.016Z,11.80
2019-05-22T07:05:37.530Z,11.90
2019-05-22T07:08:14.808Z,12.00
2019-05-22T07:10:48.533Z,12.20
2019-05-22T07:13:23.924Z,12.10
2019-05-22T07:16:00.506Z,12.20
2019-05-22T07:18:42.533Z,12.30
2019-05-22T07:21:18.389Z,12.40
2019-05-22T07:23:50.251Z,12.50
2019-05-22T07:26:22.870Z,12.40
2019-05-22T07:29:00.789Z,12.50
2019-05-22T07:31:36.503Z,12.50
2019-05-22T07:34:08.951Z,12.50
2019-05-22T07:36:41.498Z,12.60
2019-05-22T07:39:14.801Z,12.60
2019-05-22T07:41:47.380Z,12.60
2019-05-22T07:44:19.145Z,12.70
2019-05-22T07:46:52.919Z,12.80
2019-05-22T07:49:25.618Z,13.00
2019-05-22T07:52:01.728Z,13.00
2019-05-22T07:54:43.516Z,13.10
2019-05-22T07:57:21.376Z,13.20
2019-05-22T07:59:53.855Z,13.40
2019-05-22T08:02:29.290Z,13.50
2019-05-22T08:05:05.069Z,13.50
2019-05-22T08:07:45.571Z,13.60
2019-05-22T08:10:15.794Z,13.70
2019-05-22T08:12:49.070Z,13.90
2019-05-22T08:15:26.715Z,14.00
2019-05-22T08:17:59.601Z,14.00
2019-05-22T08:20:32.488Z,14.00
2019-05-22T08:23:04.748Z,14.00
2019-05-22T08:25:40.195Z,14.10
2019-05-22T08:28:13.775Z,14.30
2019-05-22T08:30:45.232Z,14.80
2019-05-22T08:33:20.898Z,14.90
2019-05-22T08:35:52.712Z,14.80
2019-05-22T08:38:31.199Z,14.80
2019-05-22T08:41:06.118Z,15.00
2019-05-22T08:44:11.528Z,15.10
2019-05-22T08:46:19.325Z,15.40
2019-05-22T08:48:53.798Z,15.50
2019-05-22T08:51:30.321Z,15.50
2019-05-22T08:54:05.362Z,15.70
2019-05-22T08:56:41.698Z,15.90
2019-05-22T08:59:19.480Z,16.10
2019-05-22T09:01:51.998Z,16.20
2019-05-22T09:04:27.206Z,16.30
2019-05-22T09:07:00.747Z,16.20
2019-05-22T09:09:33.532Z,16.40
2019-05-22T09:12:09.255Z,16.60
2019-05-22T09:14:45.065Z,16.70
2019-05-22T09:17:16.005Z,16.80
2019-05-22T09:19:47.569Z,16.80
2019-05-22T09:22:19.298Z,17.50
2019-05-22T09:24:50.665Z,18.50
2019-05-22T09:27:21.826Z,18.70
2019-05-22T09:29:53.491Z,19.00
2019-05-22T09:32:24.339Z,19.00
2019-05-22T09:34:55.620Z,18.80
2019-05-22T09:37:26.364Z,18.50
2019-05-22T10:24:18.414Z,21.10
2019-05-22T10:26:49.535Z,21.90
2019-05-22T10:29:21.804Z,21.90
2019-05-22T10:31:54.653Z,21.90
2019-05-22T10:34:25.678Z,22.20
2019-05-22T10:36:56.584Z,22.20
2019-05-22T10:39:28.055Z,21.80
2019-05-22T10:42:00.249Z,21.30
2019-05-22T10:44:31.372Z,21.40
2019-05-22T10:47:02.252Z,21.90
2019-05-22T10:49:32.960Z,21.70
2019-05-22T10:52:04.871Z,21.90
2019-05-22T10:54:35.643Z,22.50
2019-05-22T10:57:07.967Z,22.50
2019-05-22T10:59:38.743Z,22.00
2019-05-22T11:02:10.950Z,22.20
2019-05-22T11:04:42.121Z,22.80
2019-05-22T11:07:18.088Z,22.70
2019-05-22T11:09:52.190Z,22.70
2019-05-22T11:12:24.614Z,22.90
2019-05-22T11:14:55.547Z,23.20
2019-05-22T11:17:26.294Z,23.60
2019-05-22T11:19:56.996Z,24.50
2019-05-22T11:22:28.473Z,24.70
2019-05-22T11:25:02.290Z,24.60
2019-05-22T11:27:33.115Z,25.10
2019-05-22T11:30:05.740Z,24.10
2019-05-22T11:32:36.926Z,23.90
2019-05-22T11:35:12.504Z,24.70
2019-05-22T11:37:43.483Z,25.60
2019-05-22T11:40:14.883Z,26.20
2019-05-22T11:42:46.518Z,26.40
2019-05-22T11:45:18.298Z,26.90
2019-05-22T11:47:49.292Z,27.30
2019-05-22T11:50:22.072Z,27.40
2019-05-22T11:52:53.843Z,26.70
2019-05-22T11:55:43.851Z,26.60
2019-05-22T11:58:01.198Z,26.00
2019-05-22T12:00:34.187Z,25.90
2019-05-22T12:03:05.096Z,26.50
2019-05-22T12:05:38.012Z,27.50
2019-05-22T12:08:09.499Z,28.10
2019-05-22T12:10:41.470Z,27.20
2019-05-22T12:13:13.584Z,25.90
2019-05-22T12:15:44.538Z,26.60
2019-05-22T12:18:15.773Z,26.60
2019-05-22T12:20:48.212Z,26.50
2019-05-22T12:23:19.129Z,27.20
2019-05-22T12:25:51.284Z,28.00
2019-05-22T12:28:22.446Z,28.00
2019-05-22T12:30:53.295Z,28.40
2019-05-22T12:33:24.526Z,28.90
2019-05-22T12:35:56.377Z,28.70
2019-05-22T12:38:27.640Z,28.80
2019-05-22T12:40:59.159Z,28.20
2019-05-22T12:43:31.337Z,27.50
2019-05-22T12:46:03.427Z,26.30
2019-05-22T12:48:35.171Z,26.20
2019-05-22T12:51:06.528Z,26.60
2019-05-22T12:53:37.684Z,27.30
2019-05-22T12:56:09.069Z,28.10
2019-05-22T12:58:40.228Z,28.30
2019-05-22T13:01:12.465Z,28.30
2019-05-22T13:03:44.386Z,29.40
2019-05-22T13:06:15.766Z,29.00
2019-05-22T13:08:47.278Z,29.00
2019-05-22T13:11:18.094Z,28.90
2019-05-22T13:13:50.805Z,29.10
2019-05-22T13:16:22.106Z,29.10
2019-05-22T13:18:54.941Z,28.80
2019-05-22T13:21:32.673Z,27.60
2019-05-22T13:24:16.327Z,26.10
2019-05-22T13:26:51.065Z,26.40
2019-05-22T13:29:24.399Z,26.50
2019-05-22T13:31:57.312Z,26.20
2019-05-22T13:34:29.178Z,25.80
2019-05-22T13:37:00.008Z,25.60
2019-05-22T13:39:31.062Z,25.00
2019-05-22T13:42:01.971Z,23.90
2019-05-22T13:44:35.032Z,23.80
2019-05-22T13:47:06.509Z,25.00
2019-05-22T13:49:40.936Z,25.90
2019-05-22T13:52:12.817Z,27.00
2019-05-22T13:54:45.466Z,28.00
2019-05-22T13:57:23.719Z,28.80
2019-05-22T14:00:16.015Z,28.90
2019-05-22T14:02:54.439Z,29.30
2019-05-22T14:05:27.175Z,29.80
2019-05-22T14:08:06.560Z,29.30
2019-05-22T14:10:41.561Z,29.20
2019-05-22T14:13:23.275Z,28.60
2019-05-22T14:15:56.364Z,26.80
2019-05-22T14:18:32.378Z,26.00
2019-05-22T14:21:04.298Z,25.40
2019-05-22T14:23:37.456Z,24.70
2019-05-22T14:26:08.271Z,25.10
2019-05-22T14:28:41.670Z,25.90
2019-05-22T14:31:12.554Z,26.80
2019-05-22T14:33:43.841Z,26.80
2019-05-22T14:36:25.652Z,27.00
2019-05-22T16:01:59.644Z,26.60
2019-05-22T16:04:32.612Z,25.50
2019-05-22T16:07:09.823Z,24.70
2019-05-22T16:09:42.058Z,24.40
2019-05-22T16:12:14.204Z,24.30
2019-05-22T16:14:47.811Z,24.50
2019-05-22T16:17:19.165Z,25.60
2019-05-22T16:19:50.913Z,26.10
2019-05-22T16:22:22.201Z,26.60
2019-05-22T16:24:53.523Z,27.50
2019-05-22T16:27:25.862Z,27.10
2019-05-22T16:29:57.590Z,26.10
2019-05-22T16:32:34.492Z,25.20
2019-05-22T16:35:03.934Z,24.70
2019-05-22T16:37:35.718Z,24.00
2019-05-22T17:22:53.182Z,24.60
2019-05-22T17:25:31.207Z,24.30
2019-05-22T18:11:09.647Z,20.40
2019-05-22T18:14:03.071Z,20.20
2019-05-22T18:16:37.141Z,20.00
2019-05-22T18:19:08.773Z,19.90
2019-05-22T18:21:40.181Z,19.80
2019-05-22T18:24:14.239Z,19.70
2019-05-22T18:26:45.322Z,19.70
2019-05-22T18:29:19.372Z,19.50
2019-05-22T18:31:48.880Z,19.50
2019-05-22T18:34:19.902Z,19.30
2019-05-22T18:36:50.720Z,19.30
2019-05-22T18:39:22.735Z,19.20
2019-05-22T18:41:53.808Z,19.10
2019-05-22T18:44:24.879Z,19.10
2019-05-22T18:46:59.872Z,19.10
2019-05-22T18:49:31.346Z,19.10
2019-05-22T18:52:03.213Z,19.00
2019-05-22T18:55:28.339Z,18.80
2019-05-22T18:57:37.434Z,18.90
2019-05-22T19:00:38.129Z,18.80
2019-05-22T19:03:10.028Z,18.80
2019-05-22T19:05:45.120Z,18.70
2019-05-22T19:08:16.960Z,18.60
2019-05-22T19:36:32.150Z,16.20
2019-05-22T19:39:03.852Z,15.80
2019-05-22T19:41:35.012Z,15.70
2019-05-22T19:44:09.457Z,15.50
2019-05-22T19:46:40.360Z,15.30
2019-05-22T19:49:13.892Z,15.20
2019-05-22T19:51:45.531Z,15.10
2019-05-22T19:54:17.480Z,15.00
2019-05-22T19:56:49.235Z,14.90
2019-05-22T19:59:21.791Z,14.70
2019-05-22T20:01:56.251Z,14.60
2019-05-22T20:04:33.209Z,14.50
2019-05-22T20:10:38.847Z,14.40
2019-05-22T20:13:18.197Z,14.20
2019-05-22T20:15:53.223Z,14.20
2019-05-22T20:18:32.089Z,14.10
2019-05-22T20:21:14.351Z,13.90
2019-05-22T20:23:47.925Z,13.90
2019-05-22T20:26:25.098Z,13.80
2019-05-22T20:29:08.875Z,13.70
2019-05-22T20:31:47.192Z,13.60
2019-05-22T20:34:28.990Z,13.50
2019-05-22T20:37:28.567Z,13.30
2019-05-22T20:40:08.010Z,13.20
2019-05-22T20:42:54.225Z,13.00
2019-05-22T20:45:40.298Z,12.90
2019-05-22T21:38:48.333Z,11.80
2019-05-22T21:41:22.612Z,11.80
2019-05-22T21:43:57.801Z,11.80
2019-05-22T21:46:31.133Z,11.80
2019-05-22T21:49:10.180Z,11.90
2019-05-22T21:51:43.159Z,12.00
2019-05-22T21:54:16.445Z,12.00
2019-05-22T21:56:50.089Z,12.00
2019-05-22T21:59:23.805Z,11.90
2019-05-22T22:23:40.110Z,11.50
2019-05-22T22:26:25.591Z,11.40
2019-05-22T22:28:51.995Z,11.40
2019-05-22T22:31:25.568Z,11.30
2019-05-22T22:34:06.265Z,11.30
2019-05-22T22:36:40.422Z,11.30
2019-05-22T22:39:16.531Z,11.20
2019-05-22T22:41:50.713Z,11.30
2019-05-22T22:44:23.380Z,11.30
2019-05-22T22:46:58.820Z,11.20
2019-05-22T22:49:31.451Z,11.10
2019-05-22T22:52:04.054Z,11.00
2019-05-22T22:54:40.697Z,10.90
2019-05-22T22:57:12.834Z,10.90
2019-05-22T22:59:47.400Z,10.80
2019-05-22T23:02:25.078Z,10.70
2019-05-22T23:05:01.734Z,10.60
2019-05-22T23:07:35.492Z,10.50
2019-05-22T23:10:10.040Z,10.40
2019-05-22T23:12:43.071Z,10.30
2019-05-22T23:15:18.199Z,10.30
2019-05-22T23:17:52.067Z,10.20
2019-05-22T23:20:22.577Z,10.20
2019-05-22T23:22:51.813Z,10.00
2019-05-22T23:25:26.226Z,10.00
2019-05-22T23:27:57.287Z,9.90
2019-05-22T23:30:30.176Z,9.80
2019-05-22T23:33:03.242Z,9.70
2019-05-22T23:35:36.837Z,9.70
2019-05-22T23:38:09.699Z,9.70
2019-05-22T23:40:42.155Z,9.60
2019-05-22T23:43:14.463Z,9.50
